createdAt,value
2022-11-14T11:47:59.478Z,7.05
2022-11-14T11:50:45.576Z,6.78
2022-11-14T11:53:35.712Z,7.10
2022-11-14T11:56:35.151Z,6.63
2022-11-14T11:59:52.342Z,7.13
2022-11-14T12:02:31.808Z,6.63
2022-11-14T12:05:12.242Z,10.77
2022-11-14T12:08:00.676Z,8.68
2022-11-14T12:10:49.026Z,7.18
2022-11-14T12:13:54.810Z,8.15
2022-11-14T12:16:41.056Z,6.88
2022-11-14T12:19:19.711Z,7.05
2022-11-14T12:22:07.768Z,7.55
2022-11-14T12:24:47.552Z,6.93
2022-11-14T12:27:37.785Z,7.20
2022-11-14T12:30:06.042Z,7.22
2022-11-14T12:32:50.233Z,7.32
2022-11-14T12:35:46.999Z,7.25
2022-11-14T12:38:34.076Z,6.10
2022-11-14T12:41:12.368Z,5.85
2022-11-14T12:43:44.661Z,6.20
2022-11-14T12:46:52.690Z,6.22
2022-11-14T12:49:44.700Z,5.05
2022-11-14T12:52:46.890Z,3.30
2022-11-14T12:55:23.871Z,3.03
2022-11-14T12:58:14.916Z,2.60
2022-11-14T13:00:48.066Z,2.47
2022-11-14T13:03:42.362Z,2.03
2022-11-14T13:06:21.049Z,1.80
2022-11-14T13:09:03.864Z,1.95
2022-11-14T13:12:01.468Z,1.70
2022-11-14T13:18:06.224Z,1.60
2022-11-14T13:20:56.983Z,1.30
2022-11-14T13:23:28.656Z,1.50
2022-11-14T13:26:21.912Z,1.52
2022-11-14T13:29:19.989Z,1.30
2022-11-14T13:31:56.714Z,1.80
2022-11-14T13:34:43.140Z,1.38
2022-11-14T13:37:32.950Z,1.60
2022-11-14T13:40:25.569Z,1.50
2022-11-14T13:42:58.469Z,1.50
2022-11-14T13:49:05.600Z,1.70
2022-11-14T13:54:42.814Z,1.77
2022-11-14T14:00:53.037Z,1.60
2022-11-14T14:03:38.771Z,2.00
2022-11-14T14:06:33.170Z,1.88
2022-11-14T14:09:35.892Z,1.90
2022-11-14T14:12:28.552Z,1.60
2022-11-14T14:15:38.616Z,1.40
2022-11-14T14:18:44.240Z,1.70
2022-11-14T14:24:48.808Z,1.70
2022-11-14T14:30:35.031Z,1.70
2022-11-14T14:33:09.633Z,1.85
2022-11-14T14:35:53.763Z,1.83
2022-11-14T14:38:36.291Z,1.67
2022-11-14T14:41:05.748Z,1.98
2022-11-14T14:43:37.656Z,2.08
2022-11-14T14:46:07.136Z,1.80
2022-11-14T14:48:51.992Z,1.70
2022-11-14T14:51:45.377Z,1.40
2022-11-14T14:54:36.193Z,1.50
2022-11-14T16:59:09.140Z,4.53
2022-11-14T17:02:10.696Z,4.40
2022-11-14T17:07:50.522Z,4.93
2022-11-14T17:11:06.551Z,4.70
2022-11-14T17:17:21.359Z,3.22
2022-11-14T17:20:09.557Z,3.28
2022-11-14T18:05:03.564Z,9.00
2022-11-14T18:07:34.385Z,9.27
2022-11-14T18:13:45.374Z,7.18
2022-11-14T20:06:06.007Z,16.25
2022-11-14T20:08:57.843Z,14.68
2022-11-14T20:11:36.960Z,14.90
2022-11-14T20:14:20.621Z,14.40
2022-11-14T20:20:06.213Z,15.00
2022-11-14T20:22:56.946Z,15.05
2022-11-14T20:29:24.131Z,13.57
2022-11-14T20:31:59.737Z,17.60
2022-11-14T20:34:53.443Z,19.73
2022-11-14T20:37:31.786Z,15.63
2022-11-14T20:40:09.460Z,14.38
2022-11-14T20:42:48.427Z,14.10
2022-11-14T20:45:27.225Z,15.00
2022-11-14T20:48:01.666Z,15.25
2022-11-14T20:50:42.387Z,13.68
2022-11-14T20:53:14.628Z,14.27
2022-11-14T20:55:42.784Z,14.45
2022-11-14T20:58:16.161Z,14.32
2022-11-14T21:00:56.458Z,14.55
2022-11-14T21:03:26.747Z,15.05
2022-11-14T21:05:57.878Z,17.58
2022-11-14T21:08:31.807Z,16.67
2022-11-14T21:11:14.265Z,15.07
2022-11-14T21:21:01.001Z,14.52
2022-11-14T21:23:50.090Z,14.10
2022-11-14T21:26:23.455Z,13.90
2022-11-14T21:28:54.351Z,13.77
2022-11-14T21:37:56.901Z,15.45
2022-11-14T22:00:12.145Z,12.13
2022-11-14T22:03:15.033Z,10.55
2022-11-14T22:09:12.799Z,14.85
2022-11-14T22:15:02.171Z,16.25
2022-11-14T22:29:46.552Z,14.30
2022-11-14T22:32:20.981Z,14.13
2022-11-14T22:34:52.812Z,12.45
2022-11-14T22:37:32.821Z,14.07
2022-11-14T22:41:06.665Z,13.57
2022-11-14T22:43:38.752Z,13.27
2022-11-14T22:46:12.710Z,12.85
2022-11-14T22:49:05.416Z,11.75
2022-11-14T22:58:00.654Z,12.10
2022-11-14T23:00:47.963Z,12.02
2022-11-14T23:07:19.638Z,12.98
